sensor_id;sensor_type;location;lat;lon;timestamp;temperature;humidity
25410;DHT22;13339;50.840;4.346;2023-03-03T00:00:21;5.10;99.90
25410;DHT22;13339;50.840;4.346;2023-03-03T00:02:47;5.20;99.90
25410;DHT22;13339;50.840;4.346;2023-03-03T00:05:12;5.10;99.90
25410;DHT22;13339;50.840;4.346;2023-03-03T00:07:43;5.10;99.90
25410;DHT22;13339;50.840;4.346;2023-03-03T00:10:09;5.00;99.90
25410;DHT22;13339;50.840;4.346;2023-03-03T00:12:34;4.80;99.90
25410;DHT22;13339;50.840;4.346;2023-03-03T00:15:01;4.70;99.90
25410;DHT22;13339;50.840;4.346;2023-03-03T00:17:28;4.70;99.90
25410;DHT22;13339;50.840;4.346;2023-03-03T00:19:55;4.80;99.90
25410;DHT22;13339;50.840;4.346;2023-03-03T00:22:34;4.90;99.90
25410;DHT22;13339;50.840;4.346;2023-03-03T00:25:38;4.90;99.90
25410;DHT22;13339;50.840;4.346;2023-03-03T00:28:28;4.80;99.90
25410;DHT22;13339;50.840;4.346;2023-03-03T00:30:57;4.80;99.90
25410;DHT22;13339;50.840;4.346;2023-03-03T00:33:34;4.80;99.90
25410;DHT22;13339;50.840;4.346;2023-03-03T00:38:48;4.90;99.90
25410;DHT22;13339;50.840;4.346;2023-03-03T00:41:24;4.80;99.90
25410;DHT22;13339;50.840;4.346;2023-03-03T00:43:51;4.70;99.90
25410;DHT22;13339;50.840;4.346;2023-03-03T00:46:18;4.80;99.90
25410;DHT22;13339;50.840;4.346;2023-03-03T00:48:46;4.90;99.90
25410;DHT22;13339;50.840;4.346;2023-03-03T00:51:31;5.00;99.90
25410;DHT22;13339;50.840;4.346;2023-03-03T00:53:59;5.00;99.90
25410;DHT22;13339;50.840;4.346;2023-03-03T00:56:25;5.20;99.90
25410;DHT22;13339;50.840;4.346;2023-03-03T00:58:51;5.20;99.90
25410;DHT22;13339;50.840;4.346;2023-03-03T01:01:17;5.20;99.90
25410;DHT22;13339;50.840;4.346;2023-03-03T01:03:43;5.00;99.90
25410;DHT22;13339;50.840;4.346;2023-03-03T01:06:10;4.90;99.90
25410;DHT22;13339;50.840;4.346;2023-03-03T01:08:36;4.70;99.90
25410;DHT22;13339;50.840;4.346;2023-03-03T01:11:14;4.80;99.90
25410;DHT22;13339;50.840;4.346;2023-03-03T01:13:42;4.70;99.90
25410;DHT22;13339;50.840;4.346;2023-03-03T01:16:08;4.80;99.90
25410;DHT22;13339;50.840;4.346;2023-03-03T01:18:35;4.80;99.90
25410;DHT22;13339;50.840;4.346;2023-03-03T01:21:01;4.70;99.90
25410;DHT22;13339;50.840;4.346;2023-03-03T01:23:27;4.70;99.90
25410;DHT22;13339;50.840;4.346;2023-03-03T01:25:53;4.90;99.90
25410;DHT22;13339;50.840;4.346;2023-03-03T01:28:18;5.10;99.90
25410;DHT22;13339;50.840;4.346;2023-03-03T01:30:44;5.20;99.90
25410;DHT22;13339;50.840;4.346;2023-03-03T01:33:10;4.80;99.90
25410;DHT22;13339;50.840;4.346;2023-03-03T01:35:35;4.60;99.90
25410;DHT22;13339;50.840;4.346;2023-03-03T01:38:01;4.70;99.90
25410;DHT22;13339;50.840;4.346;2023-03-03T01:40:29;4.70;99.90
25410;DHT22;13339;50.840;4.346;2023-03-03T01:42:55;4.60;99.90
25410;DHT22;13339;50.840;4.346;2023-03-03T01:48:29;4.40;99.90
25410;DHT22;13339;50.840;4.346;2023-03-03T01:51:19;4.50;99.90
25410;DHT22;13339;50.840;4.346;2023-03-03T01:53:52;4.50;99.90
25410;DHT22;13339;50.840;4.346;2023-03-03T01:56:19;4.40;99.90
25410;DHT22;13339;50.840;4.346;2023-03-03T01:58:49;4.40;99.90
25410;DHT22;13339;50.840;4.346;2023-03-03T02:01:19;4.20;99.90
25410;DHT22;13339;50.840;4.346;2023-03-03T02:03:46;4.10;99.90
25410;DHT22;13339;50.840;4.346;2023-03-03T02:06:16;3.90;99.90
25410;DHT22;13339;50.840;4.346;2023-03-03T02:08:48;3.90;99.90
25410;DHT22;13339;50.840;4.346;2023-03-03T02:11:15;4.10;99.90
25410;DHT22;13339;50.840;4.346;2023-03-03T02:13:41;4.20;99.90
25410;DHT22;13339;50.840;4.346;2023-03-03T02:16:07;4.20;99.90
25410;DHT22;13339;50.840;4.346;2023-03-03T02:18:33;4.20;99.90
25410;DHT22;13339;50.840;4.346;2023-03-03T02:21:10;4.30;99.90
25410;DHT22;13339;50.840;4.346;2023-03-03T02:24:12;4.20;99.90
25410;DHT22;13339;50.840;4.346;2023-03-03T02:26:42;4.20;99.90
25410;DHT22;13339;50.840;4.346;2023-03-03T02:29:09;4.40;99.90
25410;DHT22;13339;50.840;4.346;2023-03-03T02:31:35;4.50;99.90
25410;DHT22;13339;50.840;4.346;2023-03-03T02:34:01;4.20;99.90
25410;DHT22;13339;50.840;4.346;2023-03-03T02:36:33;4.20;99.90
25410;DHT22;13339;50.840;4.346;2023-03-03T02:39:21;4.00;99.90
25410;DHT22;13339;50.840;4.346;2023-03-03T02:41:52;3.70;99.90
25410;DHT22;13339;50.840;4.346;2023-03-03T02:44:24;3.70;99.90
25410;DHT22;13339;50.840;4.346;2023-03-03T02:46:52;3.80;99.90
25410;DHT22;13339;50.840;4.346;2023-03-03T02:49:23;3.90;99.90
25410;DHT22;13339;50.840;4.346;2023-03-03T02:51:48;4.10;99.90
25410;DHT22;13339;50.840;4.346;2023-03-03T02:54:17;4.20;99.90
25410;DHT22;13339;50.840;4.346;2023-03-03T02:56:43;4.30;99.90
25410;DHT22;13339;50.840;4.346;2023-03-03T02:59:09;4.40;99.90
25410;DHT22;13339;50.840;4.346;2023-03-03T03:01:35;4.00;99.90
25410;DHT22;13339;50.840;4.346;2023-03-03T03:04:09;3.90;99.90
25410;DHT22;13339;50.840;4.346;2023-03-03T03:06:35;4.00;99.90
25410;DHT22;13339;50.840;4.346;2023-03-03T03:09:02;4.10;99.90
25410;DHT22;13339;50.840;4.346;2023-03-03T03:11:27;4.20;99.90
25410;DHT22;13339;50.840;4.346;2023-03-03T03:13:53;4.20;99.90
25410;DHT22;13339;50.840;4.346;2023-03-03T03:16:18;4.00;99.90
25410;DHT22;13339;50.840;4.346;2023-03-03T03:18:44;4.00;99.90
25410;DHT22;13339;50.840;4.346;2023-03-03T03:21:11;4.10;99.90
25410;DHT22;13339;50.840;4.346;2023-03-03T03:23:38;4.00;99.90
25410;DHT22;13339;50.840;4.346;2023-03-03T03:26:04;3.80;99.90
25410;DHT22;13339;50.840;4.346;2023-03-03T03:28:30;3.70;99.90
25410;DHT22;13339;50.840;4.346;2023-03-03T03:30:56;3.60;99.90
25410;DHT22;13339;50.840;4.346;2023-03-03T03:33:22;3.60;99.90
25410;DHT22;13339;50.840;4.346;2023-03-03T03:35:48;3.50;99.90
25410;DHT22;13339;50.840;4.346;2023-03-03T03:38:15;3.30;99.90
25410;DHT22;13339;50.840;4.346;2023-03-03T03:40:42;3.10;99.90
25410;DHT22;13339;50.840;4.346;2023-03-03T03:43:07;3.20;99.90
25410;DHT22;13339;50.840;4.346;2023-03-03T03:45:33;3.30;99.90
25410;DHT22;13339;50.840;4.346;2023-03-03T03:47:58;3.60;99.90
25410;DHT22;13339;50.840;4.346;2023-03-03T03:50:24;3.60;99.90
25410;DHT22;13339;50.840;4.346;2023-03-03T03:52:50;3.70;99.90
25410;DHT22;13339;50.840;4.346;2023-03-03T03:55:15;3.70;99.90
25410;DHT22;13339;50.840;4.346;2023-03-03T03:57:41;3.80;99.90
25410;DHT22;13339;50.840;4.346;2023-03-03T04:00:08;3.90;99.90
25410;DHT22;13339;50.840;4.346;2023-03-03T04:02:35;4.10;99.90
25410;DHT22;13339;50.840;4.346;2023-03-03T04:05:00;4.20;99.90
25410;DHT22;13339;50.840;4.346;2023-03-03T04:07:26;4.30;99.90
25410;DHT22;13339;50.840;4.346;2023-03-03T04:09:52;4.50;99.90
25410;DHT22;13339;50.840;4.346;2023-03-03T04:12:17;4.40;99.90
25410;DHT22;13339;50.840;4.346;2023-03-03T04:14:43;4.40;99.90
25410;DHT22;13339;50.840;4.346;2023-03-03T04:17:18;4.20;99.90
25410;DHT22;13339;50.840;4.346;2023-03-03T04:19:44;4.20;99.90
25410;DHT22;13339;50.840;4.346;2023-03-03T04:22:10;4.40;99.90
25410;DHT22;13339;50.840;4.346;2023-03-03T04:24:37;4.40;99.90
25410;DHT22;13339;50.840;4.346;2023-03-03T04:27:03;4.30;99.90
25410;DHT22;13339;50.840;4.346;2023-03-03T04:29:28;4.30;99.90
25410;DHT22;13339;50.840;4.346;2023-03-03T04:31:54;4.30;99.90
25410;DHT22;13339;50.840;4.346;2023-03-03T04:34:19;3.90;99.90
25410;DHT22;13339;50.840;4.346;2023-03-03T04:36:45;3.70;99.90
25410;DHT22;13339;50.840;4.346;2023-03-03T04:39:11;3.50;99.90
25410;DHT22;13339;50.840;4.346;2023-03-03T04:41:37;3.50;99.90
25410;DHT22;13339;50.840;4.346;2023-03-03T04:44:02;3.60;99.90
25410;DHT22;13339;50.840;4.346;2023-03-03T04:46:28;3.80;99.90
25410;DHT22;13339;50.840;4.346;2023-03-03T04:48:53;3.70;99.90
25410;DHT22;13339;50.840;4.346;2023-03-03T04:51:20;3.50;99.90
25410;DHT22;13339;50.840;4.346;2023-03-03T04:53:45;3.60;99.90
25410;DHT22;13339;50.840;4.346;2023-03-03T04:56:11;3.50;99.90
25410;DHT22;13339;50.840;4.346;2023-03-03T04:58:37;3.60;99.90
25410;DHT22;13339;50.840;4.346;2023-03-03T05:01:03;3.60;99.90
25410;DHT22;13339;50.840;4.346;2023-03-03T05:03:28;3.60;99.90
25410;DHT22;13339;50.840;4.346;2023-03-03T05:05:54;3.30;99.90
25410;DHT22;13339;50.840;4.346;2023-03-03T05:08:20;3.10;99.90
25410;DHT22;13339;50.840;4.346;2023-03-03T05:10:46;3.10;99.90
25410;DHT22;13339;50.840;4.346;2023-03-03T05:13:11;3.30;99.90
25410;DHT22;13339;50.840;4.346;2023-03-03T05:15:39;3.30;99.90
25410;DHT22;13339;50.840;4.346;2023-03-03T05:18:05;3.10;99.90
25410;DHT22;13339;50.840;4.346;2023-03-03T05:20:30;3.10;99.90
25410;DHT22;13339;50.840;4.346;2023-03-03T05:22:56;2.90;99.90
25410;DHT22;13339;50.840;4.346;2023-03-03T05:25:24;2.80;99.90
25410;DHT22;13339;50.840;4.346;2023-03-03T05:27:49;2.60;99.90
25410;DHT22;13339;50.840;4.346;2023-03-03T05:30:15;2.50;99.90
25410;DHT22;13339;50.840;4.346;2023-03-03T05:32:41;2.50;99.90
25410;DHT22;13339;50.840;4.346;2023-03-03T05:35:06;2.60;99.90
25410;DHT22;13339;50.840;4.346;2023-03-03T05:37:32;2.60;99.90
25410;DHT22;13339;50.840;4.346;2023-03-03T05:39:58;2.60;99.90
25410;DHT22;13339;50.840;4.346;2023-03-03T05:42:23;2.40;99.90
25410;DHT22;13339;50.840;4.346;2023-03-03T05:44:49;2.30;99.90
25410;DHT22;13339;50.840;4.346;2023-03-03T05:47:14;2.40;99.90
25410;DHT22;13339;50.840;4.346;2023-03-03T05:49:40;2.40;99.90
25410;DHT22;13339;50.840;4.346;2023-03-03T05:52:06;2.50;99.90
25410;DHT22;13339;50.840;4.346;2023-03-03T05:54:31;2.40;99.90
25410;DHT22;13339;50.840;4.346;2023-03-03T05:56:57;2.50;99.90
25410;DHT22;13339;50.840;4.346;2023-03-03T05:59:23;2.50;99.90
25410;DHT22;13339;50.840;4.346;2023-03-03T06:01:49;2.50;99.90
25410;DHT22;13339;50.840;4.346;2023-03-03T06:04:15;2.50;99.90
25410;DHT22;13339;50.840;4.346;2023-03-03T06:06:41;2.70;99.90
25410;DHT22;13339;50.840;4.346;2023-03-03T06:09:06;2.80;99.90
25410;DHT22;13339;50.840;4.346;2023-03-03T06:11:32;2.80;99.90
25410;DHT22;13339;50.840;4.346;2023-03-03T06:13:57;2.80;99.90
25410;DHT22;13339;50.840;4.346;2023-03-03T06:16:23;2.80;99.90
25410;DHT22;13339;50.840;4.346;2023-03-03T06:18:49;2.70;99.90
25410;DHT22;13339;50.840;4.346;2023-03-03T06:21:14;2.40;99.90
25410;DHT22;13339;50.840;4.346;2023-03-03T06:23:40;2.50;99.90
25410;DHT22;13339;50.840;4.346;2023-03-03T06:26:06;2.60;99.90
25410;DHT22;13339;50.840;4.346;2023-03-03T06:28:31;2.70;99.90
25410;DHT22;13339;50.840;4.346;2023-03-03T06:30:57;2.90;99.90
25410;DHT22;13339;50.840;4.346;2023-03-03T06:33:23;2.80;99.90
25410;DHT22;13339;50.840;4.346;2023-03-03T06:35:52;3.00;99.90
25410;DHT22;13339;50.840;4.346;2023-03-03T06:38:18;3.00;99.90
25410;DHT22;13339;50.840;4.346;2023-03-03T06:40:44;2.90;99.90
25410;DHT22;13339;50.840;4.346;2023-03-03T06:43:10;2.90;99.90
25410;DHT22;13339;50.840;4.346;2023-03-03T06:45:36;3.00;99.90
25410;DHT22;13339;50.840;4.346;2023-03-03T06:48:02;3.10;99.90
25410;DHT22;13339;50.840;4.346;2023-03-03T06:50:28;3.10;99.90
25410;DHT22;13339;50.840;4.346;2023-03-03T06:53:09;2.70;99.90
25410;DHT22;13339;50.840;4.346;2023-03-03T06:55:35;2.60;99.90
25410;DHT22;13339;50.840;4.346;2023-03-03T06:58:00;2.60;99.90
25410;DHT22;13339;50.840;4.346;2023-03-03T07:00:27;2.60;99.90
25410;DHT22;13339;50.840;4.346;2023-03-03T07:03:07;2.80;99.90
25410;DHT22;13339;50.840;4.346;2023-03-03T07:05:36;2.90;99.90
25410;DHT22;13339;50.840;4.346;2023-03-03T07:08:05;2.80;99.90
25410;DHT22;13339;50.840;4.346;2023-03-03T07:10:31;2.90;99.90
25410;DHT22;13339;50.840;4.346;2023-03-03T07:13:04;3.00;99.90
25410;DHT22;13339;50.840;4.346;2023-03-03T07:15:36;3.10;99.90
25410;DHT22;13339;50.840;4.346;2023-03-03T07:18:02;3.10;99.90
25410;DHT22;13339;50.840;4.346;2023-03-03T07:20:38;3.10;99.90
25410;DHT22;13339;50.840;4.346;2023-03-03T07:23:39;3.20;99.90
25410;DHT22;13339;50.840;4.346;2023-03-03T07:26:23;3.30;99.90
25410;DHT22;13339;50.840;4.346;2023-03-03T07:31:40;2.70;99.90
25410;DHT22;13339;50.840;4.346;2023-03-03T07:34:35;2.60;99.90
25410;DHT22;13339;50.840;4.346;2023-03-03T07:37:09;2.40;99.90
25410;DHT22;13339;50.840;4.346;2023-03-03T07:39:39;2.30;99.90
25410;DHT22;13339;50.840;4.346;2023-03-03T07:44:38;2.70;99.90
25410;DHT22;13339;50.840;4.346;2023-03-03T07:47:29;2.90;99.90
25410;DHT22;13339;50.840;4.346;2023-03-03T07:49:57;3.20;99.90
25410;DHT22;13339;50.840;4.346;2023-03-03T07:54:54;3.40;99.90
25410;DHT22;13339;50.840;4.346;2023-03-03T07:57:27;3.40;99.90
25410;DHT22;13339;50.840;4.346;2023-03-03T08:02:47;3.40;99.90
25410;DHT22;13339;50.840;4.346;2023-03-03T08:08:27;3.20;99.90
25410;DHT22;13339;50.840;4.346;2023-03-03T08:10:58;3.10;99.90
25410;DHT22;13339;50.840;4.346;2023-03-03T08:23:29;3.40;99.90
25410;DHT22;13339;50.840;4.346;2023-03-03T08:25:55;3.40;99.90
25410;DHT22;13339;50.840;4.346;2023-03-03T08:28:21;3.30;99.90
25410;DHT22;13339;50.840;4.346;2023-03-03T08:30:47;3.40;99.90
25410;DHT22;13339;50.840;4.346;2023-03-03T08:33:14;3.60;99.90
25410;DHT22;13339;50.840;4.346;2023-03-03T08:35:40;3.60;99.90
25410;DHT22;13339;50.840;4.346;2023-03-03T08:38:06;3.70;99.90
25410;DHT22;13339;50.840;4.346;2023-03-03T08:40:32;3.80;99.90
25410;DHT22;13339;50.840;4.346;2023-03-03T08:42:58;3.90;99.90
25410;DHT22;13339;50.840;4.346;2023-03-03T08:45:25;3.90;99.90
25410;DHT22;13339;50.840;4.346;2023-03-03T08:47:50;3.90;99.90
25410;DHT22;13339;50.840;4.346;2023-03-03T08:50:16;3.90;99.90
25410;DHT22;13339;50.840;4.346;2023-03-03T08:52:42;3.80;99.90
25410;DHT22;13339;50.840;4.346;2023-03-03T08:55:09;3.80;99.90
25410;DHT22;13339;50.840;4.346;2023-03-03T08:57:34;3.80;99.90
25410;DHT22;13339;50.840;4.346;2023-03-03T09:00:00;4.00;99.90
25410;DHT22;13339;50.840;4.346;2023-03-03T09:02:25;3.90;99.90
25410;DHT22;13339;50.840;4.346;2023-03-03T09:04:51;3.60;99.90
25410;DHT22;13339;50.840;4.346;2023-03-03T09:07:16;3.80;99.90
25410;DHT22;13339;50.840;4.346;2023-03-03T09:09:42;4.00;99.90
25410;DHT22;13339;50.840;4.346;2023-03-03T09:12:17;4.30;99.90
25410;DHT22;13339;50.840;4.346;2023-03-03T09:14:43;3.80;99.90
25410;DHT22;13339;50.840;4.346;2023-03-03T09:17:24;3.70;99.90
25410;DHT22;13339;50.840;4.346;2023-03-03T09:19:52;3.70;99.90
25410;DHT22;13339;50.840;4.346;2023-03-03T09:22:23;3.40;99.90
25410;DHT22;13339;50.840;4.346;2023-03-03T09:24:50;3.20;99.90
25410;DHT22;13339;50.840;4.346;2023-03-03T09:27:38;3.00;99.90
25410;DHT22;13339;50.840;4.346;2023-03-03T09:30:33;3.10;99.90
25410;DHT22;13339;50.840;4.346;2023-03-03T09:32:59;3.20;99.90
25410;DHT22;13339;50.840;4.346;2023-03-03T09:35:35;3.40;99.90
25410;DHT22;13339;50.840;4.346;2023-03-03T09:43:51;3.80;99.90
25410;DHT22;13339;50.840;4.346;2023-03-03T09:46:39;3.70;99.90
25410;DHT22;13339;50.840;4.346;2023-03-03T09:54:52;3.80;99.90
25410;DHT22;13339;50.840;4.346;2023-03-03T09:57:48;3.70;99.90
25410;DHT22;13339;50.840;4.346;2023-03-03T10:00:25;3.50;99.90
25410;DHT22;13339;50.840;4.346;2023-03-03T10:08:47;3.70;99.90
25410;DHT22;13339;50.840;4.346;2023-03-03T10:11:37;3.80;99.90
25410;DHT22;13339;50.840;4.346;2023-03-03T10:14:12;3.70;99.90
25410;DHT22;13339;50.840;4.346;2023-03-03T10:17:08;3.60;99.90
25410;DHT22;13339;50.840;4.346;2023-03-03T10:20:03;3.60;99.90
25410;DHT22;13339;50.840;4.346;2023-03-03T10:22:35;3.90;99.90
25410;DHT22;13339;50.840;4.346;2023-03-03T10:33:11;4.10;99.90
25410;DHT22;13339;50.840;4.346;2023-03-03T10:41:41;4.50;99.90
25410;DHT22;13339;50.840;4.346;2023-03-03T10:49:48;5.10;99.90
25410;DHT22;13339;50.840;4.346;2023-03-03T11:06:04;5.40;99.90
25410;DHT22;13339;50.840;4.346;2023-03-03T11:21:46;5.50;99.90
25410;DHT22;13339;50.840;4.346;2023-03-03T11:32:42;5.80;99.90
25410;DHT22;13339;50.840;4.346;2023-03-03T11:35:21;5.80;99.90
25410;DHT22;13339;50.840;4.346;2023-03-03T11:41:20;6.00;99.90
25410;DHT22;13339;50.840;4.346;2023-03-03T11:46:53;5.90;99.90
25410;DHT22;13339;50.840;4.346;2023-03-03T11:51:58;6.10;99.90
25410;DHT22;13339;50.840;4.346;2023-03-03T11:54:39;6.20;99.90
25410;DHT22;13339;50.840;4.346;2023-03-03T12:03:18;6.10;99.90
25410;DHT22;13339;50.840;4.346;2023-03-03T12:05:53;5.70;99.90
25410;DHT22;13339;50.840;4.346;2023-03-03T12:13:57;6.20;99.90
25410;DHT22;13339;50.840;4.346;2023-03-03T12:17:10;6.20;99.90
25410;DHT22;13339;50.840;4.346;2023-03-03T12:25:18;6.40;99.90
25410;DHT22;13339;50.840;4.346;2023-03-03T12:27:50;6.40;99.90
25410;DHT22;13339;50.840;4.346;2023-03-03T12:30:55;6.50;99.90
25410;DHT22;13339;50.840;4.346;2023-03-03T12:33:35;6.70;99.90
25410;DHT22;13339;50.840;4.346;2023-03-03T12:39:11;7.20;99.90
25410;DHT22;13339;50.840;4.346;2023-03-03T12:41:52;7.40;99.90
25410;DHT22;13339;50.840;4.346;2023-03-03T12:44:34;7.60;99.90
25410;DHT22;13339;50.840;4.346;2023-03-03T12:47:15;7.50;99.90
25410;DHT22;13339;50.840;4.346;2023-03-03T12:58:24;7.20;99.90
25410;DHT22;13339;50.840;4.346;2023-03-03T13:15:02;7.80;99.90
25410;DHT22;13339;50.840;4.346;2023-03-03T13:17:41;7.90;99.90
25410;DHT22;13339;50.840;4.346;2023-03-03T13:23:13;7.50;99.90
25410;DHT22;13339;50.840;4.346;2023-03-03T13:26:24;7.50;99.90
25410;DHT22;13339;50.840;4.346;2023-03-03T13:29:11;7.30;99.90
25410;DHT22;13339;50.840;4.346;2023-03-03T13:31:39;7.10;99.90
25410;DHT22;13339;50.840;4.346;2023-03-03T13:34:12;6.80;99.90
25410;DHT22;13339;50.840;4.346;2023-03-03T13:36:58;6.80;99.90
25410;DHT22;13339;50.840;4.346;2023-03-03T13:39:30;6.90;99.90
25410;DHT22;13339;50.840;4.346;2023-03-03T13:42:05;7.10;99.90
25410;DHT22;13339;50.840;4.346;2023-03-03T13:44:40;7.20;99.90
25410;DHT22;13339;50.840;4.346;2023-03-03T13:47:14;7.40;99.90
25410;DHT22;13339;50.840;4.346;2023-03-03T13:50:17;7.60;99.90
25410;DHT22;13339;50.840;4.346;2023-03-03T13:53:10;7.70;99.90
25410;DHT22;13339;50.840;4.346;2023-03-03T13:58:15;7.30;99.90
25410;DHT22;13339;50.840;4.346;2023-03-03T14:01:00;7.40;99.90
25410;DHT22;13339;50.840;4.346;2023-03-03T14:06:17;8.00;99.90
25410;DHT22;13339;50.840;4.346;2023-03-03T14:11:45;8.10;99.90
25410;DHT22;13339;50.840;4.346;2023-03-03T14:17:04;8.20;99.90
25410;DHT22;13339;50.840;4.346;2023-03-03T14:19:39;8.30;99.90
25410;DHT22;13339;50.840;4.346;2023-03-03T14:22:29;8.60;99.90
25410;DHT22;13339;50.840;4.346;2023-03-03T14:27:39;8.70;99.90
25410;DHT22;13339;50.840;4.346;2023-03-03T14:33:15;8.40;99.90
25410;DHT22;13339;50.840;4.346;2023-03-03T14:36:03;8.60;99.90
25410;DHT22;13339;50.840;4.346;2023-03-03T14:43:40;7.90;99.90
25410;DHT22;13339;50.840;4.346;2023-03-03T14:49:00;7.70;99.90
25410;DHT22;13339;50.840;4.346;2023-03-03T14:51:38;7.80;99.90
25410;DHT22;13339;50.840;4.346;2023-03-03T14:54:08;7.70;99.90
25410;DHT22;13339;50.840;4.346;2023-03-03T14:56:38;7.70;99.90
25410;DHT22;13339;50.840;4.346;2023-03-03T14:59:21;7.90;99.90
25410;DHT22;13339;50.840;4.346;2023-03-03T15:02:09;8.20;99.90
25410;DHT22;13339;50.840;4.346;2023-03-03T15:04:45;8.40;99.90
25410;DHT22;13339;50.840;4.346;2023-03-03T15:07:35;8.40;99.90
25410;DHT22;13339;50.840;4.346;2023-03-03T15:10:03;8.30;99.90
25410;DHT22;13339;50.840;4.346;2023-03-03T15:12:39;8.60;99.90
25410;DHT22;13339;50.840;4.346;2023-03-03T15:17:42;8.80;99.90
25410;DHT22;13339;50.840;4.346;2023-03-03T15:23:20;8.50;99.90
25410;DHT22;13339;50.840;4.346;2023-03-03T15:31:16;8.40;99.90
25410;DHT22;13339;50.840;4.346;2023-03-03T15:39:00;8.30;99.90
25410;DHT22;13339;50.840;4.346;2023-03-03T15:44:50;8.40;99.90
25410;DHT22;13339;50.840;4.346;2023-03-03T15:53:04;8.50;99.90
25410;DHT22;13339;50.840;4.346;2023-03-03T15:55:58;8.50;99.90
25410;DHT22;13339;50.840;4.346;2023-03-03T16:01:25;8.50;99.90
25410;DHT22;13339;50.840;4.346;2023-03-03T16:03:58;8.70;99.90
25410;DHT22;13339;50.840;4.346;2023-03-03T16:11:55;9.10;99.90
25410;DHT22;13339;50.840;4.346;2023-03-03T16:14:33;9.20;99.90
25410;DHT22;13339;50.840;4.346;2023-03-03T16:20:05;9.00;99.90
25410;DHT22;13339;50.840;4.346;2023-03-03T16:25:42;9.20;99.90
25410;DHT22;13339;50.840;4.346;2023-03-03T16:28:18;9.20;99.90
25410;DHT22;13339;50.840;4.346;2023-03-03T16:31:32;9.20;99.90
25410;DHT22;13339;50.840;4.346;2023-03-03T16:34:19;8.70;99.90
25410;DHT22;13339;50.840;4.346;2023-03-03T16:36:54;8.80;99.90
25410;DHT22;13339;50.840;4.346;2023-03-03T16:39:26;8.70;99.90
25410;DHT22;13339;50.840;4.346;2023-03-03T16:42:02;8.60;99.90
25410;DHT22;13339;50.840;4.346;2023-03-03T16:50:11;8.60;99.90
25410;DHT22;13339;50.840;4.346;2023-03-03T16:52:44;8.70;99.90
25410;DHT22;13339;50.840;4.346;2023-03-03T16:55:27;8.80;99.90
25410;DHT22;13339;50.840;4.346;2023-03-03T17:03:35;8.90;99.90
25410;DHT22;13339;50.840;4.346;2023-03-03T17:09:14;8.90;99.90
25410;DHT22;13339;50.840;4.346;2023-03-03T17:11:52;9.00;99.90
25410;DHT22;13339;50.840;4.346;2023-03-03T17:17:28;8.90;99.90
25410;DHT22;13339;50.840;4.346;2023-03-03T17:36:42;8.30;99.90
25410;DHT22;13339;50.840;4.346;2023-03-03T17:42:26;8.50;99.90
25410;DHT22;13339;50.840;4.346;2023-03-03T17:45:13;8.70;99.90
25410;DHT22;13339;50.840;4.346;2023-03-03T17:48:04;8.40;99.90
25410;DHT22;13339;50.840;4.346;2023-03-03T17:53:15;8.30;99.90
25410;DHT22;13339;50.840;4.346;2023-03-03T17:56:02;8.40;99.90
25410;DHT22;13339;50.840;4.346;2023-03-03T17:58:53;8.40;99.90
25410;DHT22;13339;50.840;4.346;2023-03-03T18:07:25;8.30;99.90
25410;DHT22;13339;50.840;4.346;2023-03-03T18:12:51;8.30;99.90
25410;DHT22;13339;50.840;4.346;2023-03-03T18:15:48;8.50;99.90
25410;DHT22;13339;50.840;4.346;2023-03-03T18:18:46;8.60;99.90
25410;DHT22;13339;50.840;4.346;2023-03-03T18:21:48;8.30;99.90
25410;DHT22;13339;50.840;4.346;2023-03-03T18:30:13;8.30;99.90
25410;DHT22;13339;50.840;4.346;2023-03-03T18:32:46;8.30;99.90
25410;DHT22;13339;50.840;4.346;2023-03-03T18:35:46;8.10;99.90
25410;DHT22;13339;50.840;4.346;2023-03-03T18:43:54;8.40;99.90
25410;DHT22;13339;50.840;4.346;2023-03-03T19:04:55;8.40;99.90
25410;DHT22;13339;50.840;4.346;2023-03-03T19:07:53;8.40;99.90
25410;DHT22;13339;50.840;4.346;2023-03-03T19:12:56;8.50;99.90
25410;DHT22;13339;50.840;4.346;2023-03-03T19:21:29;8.70;99.90
25410;DHT22;13339;50.840;4.346;2023-03-03T19:27:17;9.00;99.90
25410;DHT22;13339;50.840;4.346;2023-03-03T19:35:19;8.70;99.90
25410;DHT22;13339;50.840;4.346;2023-03-03T19:41:02;8.60;99.90
25410;DHT22;13339;50.840;4.346;2023-03-03T19:56:48;8.50;99.90
25410;DHT22;13339;50.840;4.346;2023-03-03T20:09:44;8.30;99.90
25410;DHT22;13339;50.840;4.346;2023-03-03T20:12:22;8.30;99.90
25410;DHT22;13339;50.840;4.346;2023-03-03T20:15:11;8.20;99.90
25410;DHT22;13339;50.840;4.346;2023-03-03T20:23:10;8.50;99.90
25410;DHT22;13339;50.840;4.346;2023-03-03T20:25:58;8.60;99.90
25410;DHT22;13339;50.840;4.346;2023-03-03T20:31:18;8.50;99.90
25410;DHT22;13339;50.840;4.346;2023-03-03T20:36:24;8.60;99.90
25410;DHT22;13339;50.840;4.346;2023-03-03T20:44:20;8.60;99.90
25410;DHT22;13339;50.840;4.346;2023-03-03T20:47:04;8.50;99.90
25410;DHT22;13339;50.840;4.346;2023-03-03T20:49:57;8.40;99.90
25410;DHT22;13339;50.840;4.346;2023-03-03T20:56:04;8.20;99.90
25410;DHT22;13339;50.840;4.346;2023-03-03T21:04:28;8.20;99.90
25410;DHT22;13339;50.840;4.346;2023-03-03T21:06:55;8.40;99.90
25410;DHT22;13339;50.840;4.346;2023-03-03T21:09:35;8.40;99.90
25410;DHT22;13339;50.840;4.346;2023-03-03T21:12:28;8.60;99.90
25410;DHT22;13339;50.840;4.346;2023-03-03T21:15:04;8.50;99.90
25410;DHT22;13339;50.840;4.346;2023-03-03T21:17:32;8.50;99.90
25410;DHT22;13339;50.840;4.346;2023-03-03T21:20:34;8.60;99.90
25410;DHT22;13339;50.840;4.346;2023-03-03T21:23:00;8.70;99.90
25410;DHT22;13339;50.840;4.346;2023-03-03T21:25:46;8.80;99.90
25410;DHT22;13339;50.840;4.346;2023-03-03T21:33:57;8.50;99.90
25410;DHT22;13339;50.840;4.346;2023-03-03T21:38:51;8.30;99.90
25410;DHT22;13339;50.840;4.346;2023-03-03T21:41:18;8.20;99.90
25410;DHT22;13339;50.840;4.346;2023-03-03T21:43:46;8.10;99.90
25410;DHT22;13339;50.840;4.346;2023-03-03T21:46:19;8.10;99.90
25410;DHT22;13339;50.840;4.346;2023-03-03T21:48:45;8.10;99.90
25410;DHT22;13339;50.840;4.346;2023-03-03T21:51:11;8.10;99.90
25410;DHT22;13339;50.840;4.346;2023-03-03T21:53:41;8.00;99.90
25410;DHT22;13339;50.840;4.346;2023-03-03T21:56:07;8.00;99.90
25410;DHT22;13339;50.840;4.346;2023-03-03T21:58:33;8.00;99.90
25410;DHT22;13339;50.840;4.346;2023-03-03T22:00:58;7.90;99.90
25410;DHT22;13339;50.840;4.346;2023-03-03T22:03:24;7.90;99.90
25410;DHT22;13339;50.840;4.346;2023-03-03T22:05:49;7.90;99.90
25410;DHT22;13339;50.840;4.346;2023-03-03T22:08:15;8.10;99.90
25410;DHT22;13339;50.840;4.346;2023-03-03T22:10:47;8.10;99.90
25410;DHT22;13339;50.840;4.346;2023-03-03T22:13:16;7.90;99.90
25410;DHT22;13339;50.840;4.346;2023-03-03T22:15:47;7.80;99.90
25410;DHT22;13339;50.840;4.346;2023-03-03T22:18:13;7.60;99.90
25410;DHT22;13339;50.840;4.346;2023-03-03T22:20:40;7.60;99.90
25410;DHT22;13339;50.840;4.346;2023-03-03T22:23:05;7.70;99.90
25410;DHT22;13339;50.840;4.346;2023-03-03T22:25:31;7.90;99.90
25410;DHT22;13339;50.840;4.346;2023-03-03T22:27:56;7.90;99.90
25410;DHT22;13339;50.840;4.346;2023-03-03T22:30:22;8.00;99.90
25410;DHT22;13339;50.840;4.346;2023-03-03T22:32:48;8.00;99.90